Home > Products > Valid Products > TAF

000
FTUS42 KFFC 282150 AAB
TAFATL
TAF AMD
KATL 282150Z 2822/2924 11012KT P6SM SCT035 BKN250
     FM290000 11007KT P6SM SCT050 SCT250
     FM290900 10007KT 5SM BR BKN009
     FM291400 12010KT P6SM VCSH BKN015 OVC035 PROB30 2914/2918 6SM
      -SHRA BKN010
     FM291800 12012KT 6SM -SHRA BKN030 OVC080=



000
FTUS42 KFFC 282114 AAB
TAFCSG
TAF AMD
KCSG 282114Z 2821/2918 10010KT P6SM VCSH BKN040 BKN250
      TEMPO 2821/2823 VRB15G25KT 3SM -TSRA BKN030CB
     FM290000 11006KT P6SM SCT050 SCT250
     FM290900 10005KT 5SM BR BKN009
     FM291400 12010KT P6SM VCSH BKN015 OVC035 PROB30 2914/2918 6SM
      -SHRA BKN010=



000
FTUS42 KFFC 282003 AAA
TAFCSG
TAF AMD
KCSG 282003Z 2820/2918 10010KT P6SM VCSH BKN040 BKN250
      TEMPO 2820/2823 3SM -TSRA BKN030CB
     FM290000 11006KT P6SM SCT050 SCT250
     FM290900 10005KT 5SM BR BKN009
     FM291400 12010KT P6SM VCSH BKN015 OVC035 PROB30 2914/2918 6SM
      -SHRA BKN010=



000
FTUS42 KFFC 281948 AAA
TAFRYY
TAF AMD
KRYY 281948Z 2820/2918 12008G16KT P6SM SCT040
     FM290000 11006KT P6SM SCT050 SCT250
     FM290900 10005KT 5SM BR BKN009
     FM291400 12010KT P6SM VCSH BKN015 OVC035 PROB30 2914/2918 6SM
      -SHRA BKN010=



000
FTUS42 KFFC 281948 AAA
TAFRYY
TAF AMD
KRYY 281948Z 2820/2918 12008G16KT P6SM SCT040
     FM290000 11006KT P6SM SCT050 SCT250
     FM290900 10005KT 5SM BR BKN009
     FM291400 12010KT P6SM VCSH BKN015 OVC035 PROB30 2914/2918 6SM
      -SHRA BKN010=



000
FTUS42 KFFC 281945 AAA
TAFFTY
TAF AMD
KFTY 281945Z 2820/2918 09010KT P6SM SCT035 SCT045
     FM290000 11006KT P6SM SCT050 SCT250
     FM290900 10005KT 4SM BR BKN009
     FM291400 12010KT P6SM VCSH BKN015 OVC035 PROB30 2914/2918 6SM
      -SHRA BKN010=



000
FTUS42 KFFC 281944 AAA
TAFATL
TAF AMD
KATL 281944Z 2820/2924 11012KT P6SM SCT035 SCT250
     FM290000 11007KT P6SM SCT050 SCT250
     FM290900 10007KT 5SM BR BKN009
     FM291400 12010KT P6SM VCSH BKN015 OVC035 PROB30 2914/2918 6SM
      -SHRA BKN010
     FM291800 12012KT 6SM -SHRA BKN030 OVC080=



000
FTUS42 KFFC 281729
TAFPDK
TAF
KPDK 281729Z 2818/2918 10008KT P6SM SCT025 BKN035
     FM282000 10010KT P6SM BKN040 BKN250
     FM290000 11006KT P6SM SCT050 SCT250
     FM290900 10005KT 4SM BR BKN009
     FM291400 12010KT P6SM VCSH BKN015 OVC035 PROB30 2914/2918 6SM
      -SHRA BKN010=



000
FTUS42 KFFC 281729
TAFAHN
TAF
KAHN 281729Z 2818/2918 09010KT P6SM BKN035
     FM282000 10010KT P6SM BKN040 BKN250
     FM290000 11006KT P6SM SCT050 SCT250
     FM290900 10005KT 4SM BR BKN009
     FM291400 12010KT P6SM VCSH BKN015 OVC035 PROB30 2914/2918 6SM
      -SHRA BKN010=



000
FTUS42 KFFC 281729
TAFMCN
TAF
KMCN 281729Z 2818/2918 07012KT P6SM SCT030 BKN040
     FM282000 07012KT P6SM BKN040 BKN250
     FM290000 08006KT P6SM SCT050 SCT250
     FM290900 10005KT 5SM BR BKN009
     FM291400 12010KT P6SM VCSH BKN015 OVC035 PROB30 2914/2918 6SM
      -SHRA BKN010=



000
FTUS42 KFFC 281729
TAFPDK
TAF
KPDK 281729Z 2818/2918 10008KT P6SM SCT025 BKN035
     FM282000 10010KT P6SM BKN040 BKN250
     FM290000 11006KT P6SM SCT050 SCT250
     FM290900 10005KT 4SM BR BKN009
     FM291400 12010KT P6SM VCSH BKN015 OVC035 PROB30 2914/2918 6SM
      -SHRA BKN010=



000
FTUS42 KFFC 281729
TAFATL
TAF
KATL 281729Z 2818/2924 11012G18KT P6SM BKN015 BKN025
     FM282000 10014KT P6SM BKN040 BKN250
     FM290000 11007KT P6SM SCT050 SCT250
     FM290900 10007KT 5SM BR BKN009
     FM291400 12010KT P6SM VCSH BKN015 OVC035 PROB30 2914/2918 6SM
      -SHRA BKN010
     FM291800 12012KT 6SM -SHRA BKN030 OVC080=



000
FTUS42 KFFC 281729
TAFFTY
TAF
KFTY 281729Z 2818/2918 09010KT P6SM SCT020 BKN025
     FM282000 10010KT P6SM BKN040 BKN250
     FM290000 11006KT P6SM SCT050 SCT250
     FM290900 10005KT 4SM BR BKN009
     FM291400 12010KT P6SM VCSH BKN015 OVC035 PROB30 2914/2918 6SM
      -SHRA BKN010=



000
FTUS42 KFFC 281729
TAFRYY
TAF
KRYY 281729Z 2818/2918 12008G16KT P6SM BKN020
     FM282000 10010KT P6SM BKN040 BKN250
     FM290000 11006KT P6SM SCT050 SCT250
     FM290900 10005KT 5SM BR BKN009
     FM291400 12010KT P6SM VCSH BKN015 OVC035 PROB30 2914/2918 6SM
      -SHRA BKN010=



000
FTUS42 KFFC 281729
TAFCSG
TAF
KCSG 281729Z 2818/2918 12010KT P6SM SCT020 BKN035
     FM282000 10010KT P6SM BKN040 BKN250
     FM290000 11006KT P6SM SCT050 SCT250
     FM290900 10005KT 5SM BR BKN009
     FM291400 12010KT P6SM VCSH BKN015 OVC035 PROB30 2914/2918 6SM
      -SHRA BKN010=



000
FTUS42 KFFC 281554 AAC
TAFATL
TAF AMD
KATL 281554Z 2816/2918 11012KT P6SM BKN015 BKN025
     FM281900 10010KT P6SM BKN040 BKN250
     FM290900 10006KT P6SM BKN010 BKN025
     FM291200 12008KT P6SM VCSH BKN010 OVC025 PROB30 2912/2918 6SM
      -SHRA SCT010 OVC025=



000
FTUS42 KFFC 281554 AAC
TAFATL
TAF AMD
KATL 281554Z 2816/2918 11012KT P6SM BKN015 BKN025
     FM281900 10010KT P6SM BKN040 BKN250
     FM290900 10006KT P6SM BKN010 BKN025
     FM291200 12008KT P6SM VCSH BKN010 OVC025 PROB30 2912/2918 6SM
      -SHRA SCT010 OVC025=



000
FTUS42 KFFC 281401 AAA
TAFAHN
TAF AMD
KAHN 281401Z 2814/2912 07007KT 5SM BR BKN008
     FM281500 08010KT P6SM SCT010 BKN020
     FM281700 09010KT P6SM SCT030
     FM290000 09004KT P6SM FEW035 SCT250
     FM290900 09003KT 6SM BR SCT007 BKN020=



000
FTUS42 KFFC 281401 AAA
TAFAHN
TAF AMD
KAHN 281401Z 2814/2912 07007KT 5SM BR BKN008
     FM281500 08010KT P6SM SCT010 BKN020
     FM281700 09010KT P6SM SCT030
     FM290000 09004KT P6SM FEW035 SCT250
     FM290900 09003KT 6SM BR SCT007 BKN020=



000
FTUS42 KFFC 281400 AAB
TAFMCN
TAF AMD
KMCN 281400Z 2814/2912 07007KT P6SM SCT008 BKN025
      TEMPO 2814/2815 BKN008
     FM281500 08006KT P6SM SCT010 BKN030
     FM281700 09010KT P6SM BKN040
     FM281900 10006KT P6SM SCT040 BKN250
     FM290100 10004KT P6SM SCT045 BKN250
     FM290800 09003KT P6SM SCT008 BKN020=



000
FTUS42 KFFC 281400 AAB
TAFMCN
TAF AMD
KMCN 281400Z 2814/2912 07007KT P6SM SCT008 BKN025
      TEMPO 2814/2815 BKN008
     FM281500 08006KT P6SM SCT010 BKN030
     FM281700 09010KT P6SM BKN040
     FM281900 10006KT P6SM SCT040 BKN250
     FM290100 10004KT P6SM SCT045 BKN250
     FM290800 09003KT P6SM SCT008 BKN020=



000
FTUS42 KFFC 281356 AAB
TAFATL
TAF AMD
KATL 281356Z 2814/2918 11010KT 5SM HZ SCT006 BKN008
     FM281600 09010KT P6SM SCT010 BKN020
     FM281900 10008KT P6SM SCT040 BKN250
     FM290900 10006KT P6SM BKN010 BKN025
     FM291200 12008KT P6SM VCSH BKN010 OVC025 PROB30 2912/2918 6SM
      -SHRA SCT010 OVC025=



000
FTUS42 KFFC 281305 AAA
TAFMCN
TAF AMD
KMCN 281305Z 2813/2912 07007KT P6SM OVC006
     FM281500 09008KT P6SM BKN015
     FM281700 09010KT P6SM BKN035
     FM282200 10006KT P6SM SCT040 BKN250
     FM290100 10004KT P6SM SCT045 BKN250
     FM290800 09003KT P6SM SCT008 BKN020=



000
FTUS42 KFFC 281305 AAA
TAFMCN
TAF AMD
KMCN 281305Z 2813/2912 07007KT P6SM OVC006
     FM281500 09008KT P6SM BKN015
     FM281700 09010KT P6SM BKN035
     FM282200 10006KT P6SM SCT040 BKN250
     FM290100 10004KT P6SM SCT045 BKN250
     FM290800 09003KT P6SM SCT008 BKN020=



000
FTUS42 KFFC 281304 AAA
TAFRYY
TAF AMD
KRYY 281304Z 2813/2912 10008KT P6SM OVC006
     FM281500 12008KT P6SM SCT010 BKN020
     FM281700 12009KT P6SM SCT035
     FM290000 12005KT P6SM FEW040 BKN250
     FM290900 11005KT P6SM BKN010 BKN025=



000
FTUS42 KFFC 281304 AAA
TAFRYY
TAF AMD
KRYY 281304Z 2813/2912 10008KT P6SM OVC006
     FM281500 12008KT P6SM SCT010 BKN020
     FM281700 12009KT P6SM SCT035
     FM290000 12005KT P6SM FEW040 BKN250
     FM290900 11005KT P6SM BKN010 BKN025=



000
FTUS42 KFFC 281302 AAA
TAFPDK
TAF AMD
KPDK 281302Z 2813/2912 08005KT 5SM BR OVC005
     FM281500 08006KT P6SM SCT010 BKN020
     FM281700 10008KT P6SM SCT035
     FM290000 12003KT P6SM FEW040 BKN250
     FM290900 10006KT P6SM BKN010 BKN025=



000
FTUS42 KFFC 281302 AAA
TAFPDK
TAF AMD
KPDK 281302Z 2813/2912 08005KT 5SM BR OVC005
     FM281500 08006KT P6SM SCT010 BKN020
     FM281700 10008KT P6SM SCT035
     FM290000 12003KT P6SM FEW040 BKN250
     FM290900 10006KT P6SM BKN010 BKN025=



000
FTUS42 KFFC 281256 AAA
TAFATL
TAF AMD
KATL 281256Z 2813/2918 11010KT 4SM BR OVC004
     FM281500 11010KT 5SM BR BKN009
     FM281700 09010KT P6SM SCT010 BKN020
     FM282200 10008KT P6SM SCT040 BKN250
     FM290900 10006KT P6SM BKN010 BKN025
     FM291200 12008KT P6SM VCSH BKN010 OVC025 PROB30 2912/2918 6SM
      -SHRA SCT010 OVC025=



000
FTUS42 KFFC 281256 AAA
TAFATL
TAF AMD
KATL 281256Z 2813/2918 11010KT 4SM BR OVC004
     FM281500 11010KT 5SM BR BKN009
     FM281700 09010KT P6SM SCT010 BKN020
     FM282200 10008KT P6SM SCT040 BKN250
     FM290900 10006KT P6SM BKN010 BKN025
     FM291200 12008KT P6SM VCSH BKN010 OVC025 PROB30 2912/2918 6SM
      -SHRA SCT010 OVC025=



000
FTUS42 KFFC 281153 AAA
TAFCSG
TAF AMD
KCSG 281153Z 2812/2912 09008KT P6SM SCT008 BKN015
     FM281400 11010KT P6SM SCT010 BKN020
     FM281700 12010KT P6SM BKN035
     FM282200 12008KT P6SM SCT040 BKN250
     FM290100 12005KT P6SM SCT045 BKN250
     FM290900 10005KT P6SM SCT008 BKN025=



000
FTUS42 KFFC 281153 AAA
TAFCSG
TAF AMD
KCSG 281153Z 2812/2912 09008KT P6SM SCT008 BKN015
     FM281400 11010KT P6SM SCT010 BKN020
     FM281700 12010KT P6SM BKN035
     FM282200 12008KT P6SM SCT040 BKN250
     FM290100 12005KT P6SM SCT045 BKN250
     FM290900 10005KT P6SM SCT008 BKN025=



000
FTUS42 KFFC 281120
TAFCSG
TAF
KCSG 281120Z 2812/2912 09008KT P6SM BKN008
      TEMPO 2812/2814 SCT008 BKN015
     FM281400 11010KT P6SM SCT010 BKN020
     FM281700 12010KT P6SM BKN035
     FM282200 12008KT P6SM SCT040 BKN250
     FM290100 12005KT P6SM SCT045 BKN250
     FM290900 10005KT P6SM SCT008 BKN025=



000
FTUS42 KFFC 281120
TAFCSG
TAF
KCSG 281120Z 2812/2912 09008KT P6SM BKN008
      TEMPO 2812/2814 SCT008 BKN015
     FM281400 11010KT P6SM SCT010 BKN020
     FM281700 12010KT P6SM BKN035
     FM282200 12008KT P6SM SCT040 BKN250
     FM290100 12005KT P6SM SCT045 BKN250
     FM290900 10005KT P6SM SCT008 BKN025=



000
FTUS42 KFFC 281120
TAFFTY
TAF
KFTY 281120Z 2812/2912 07005KT P6SM BKN010
      TEMPO 2812/2814 SCT008 BKN015
     FM281400 08008KT P6SM SCT010 BKN020
     FM281700 09010KT P6SM SCT035
     FM290000 10004KT P6SM FEW040 BKN250
     FM290900 09003KT P6SM BKN010 BKN025=



000
FTUS42 KFFC 281120
TAFPDK
TAF
KPDK 281120Z 2812/2912 08005KT P6SM BKN009
      TEMPO 2812/2814 SCT009 BKN015
     FM281400 08006KT P6SM SCT010 BKN020
     FM281700 10008KT P6SM SCT035
     FM290000 12003KT P6SM FEW040 BKN250
     FM290900 10006KT P6SM BKN010 BKN025=



000
FTUS42 KFFC 281120
TAFFTY
TAF
KFTY 281120Z 2812/2912 07005KT P6SM BKN010
      TEMPO 2812/2814 SCT008 BKN015
     FM281400 08008KT P6SM SCT010 BKN020
     FM281700 09010KT P6SM SCT035
     FM290000 10004KT P6SM FEW040 BKN250
     FM290900 09003KT P6SM BKN010 BKN025=



000
FTUS42 KFFC 281120
TAFPDK
TAF
KPDK 281120Z 2812/2912 08005KT P6SM BKN009
      TEMPO 2812/2814 SCT009 BKN015
     FM281400 08006KT P6SM SCT010 BKN020
     FM281700 10008KT P6SM SCT035
     FM290000 12003KT P6SM FEW040 BKN250
     FM290900 10006KT P6SM BKN010 BKN025=



000
FTUS42 KFFC 281120
TAFMCN
TAF
KMCN 281120Z 2812/2912 07005KT P6SM SCT008 BKN015
      TEMPO 2812/2814 6SM BR BKN006
     FM281400 09008KT P6SM BKN015
     FM281700 09010KT P6SM BKN035
     FM282200 10006KT P6SM SCT040 BKN250
     FM290100 10004KT P6SM SCT045 BKN250
     FM290800 09003KT P6SM SCT008 BKN020=



000
FTUS42 KFFC 281120
TAFAHN
TAF
KAHN 281120Z 2812/2912 07007KT P6SM BKN008
      TEMPO 2812/2814 SCT010 BKN015
     FM281400 08010KT P6SM SCT010 BKN020
     FM281700 09010KT P6SM SCT030
     FM290000 09004KT P6SM FEW035 SCT250
     FM290900 09003KT 6SM BR SCT007 BKN020=



000
FTUS42 KFFC 281120
TAFRYY
TAF
KRYY 281120Z 2812/2912 10005KT P6SM BKN012
      TEMPO 2812/2814 BKN008
     FM281400 12008KT P6SM SCT010 BKN020
     FM281700 12009KT P6SM SCT035
     FM290000 12005KT P6SM FEW040 BKN250
     FM290900 11005KT P6SM BKN010 BKN025=



000
FTUS42 KFFC 281120
TAFMCN
TAF
KMCN 281120Z 2812/2912 07005KT P6SM SCT008 BKN015
      TEMPO 2812/2814 6SM BR BKN006
     FM281400 09008KT P6SM BKN015
     FM281700 09010KT P6SM BKN035
     FM282200 10006KT P6SM SCT040 BKN250
     FM290100 10004KT P6SM SCT045 BKN250
     FM290800 09003KT P6SM SCT008 BKN020=



000
FTUS42 KFFC 281120
TAFAHN
TAF
KAHN 281120Z 2812/2912 07007KT P6SM BKN008
      TEMPO 2812/2814 SCT010 BKN015
     FM281400 08010KT P6SM SCT010 BKN020
     FM281700 09010KT P6SM SCT030
     FM290000 09004KT P6SM FEW035 SCT250
     FM290900 09003KT 6SM BR SCT007 BKN020=



000
FTUS42 KFFC 281120
TAFRYY
TAF
KRYY 281120Z 2812/2912 10005KT P6SM BKN012
      TEMPO 2812/2814 BKN008
     FM281400 12008KT P6SM SCT010 BKN020
     FM281700 12009KT P6SM SCT035
     FM290000 12005KT P6SM FEW040 BKN250
     FM290900 11005KT P6SM BKN010 BKN025=



000
FTUS42 KFFC 281120
TAFATL
TAF
KATL 281120Z 2812/2918 08010KT P6SM SCT008 BKN015
      TEMPO 2812/2814 BKN008
     FM281400 09010KT P6SM SCT010 BKN020
     FM281700 09010KT P6SM SCT035
     FM282200 10008KT P6SM SCT040 BKN250
     FM290900 10006KT P6SM BKN010 BKN025
     FM291200 12008KT P6SM VCSH BKN010 OVC025 PROB30 2912/2918 6SM
      -SHRA SCT010 OVC025=



000
FTUS42 KFFC 281120
TAFATL
TAF
KATL 281120Z 2812/2918 08010KT P6SM SCT008 BKN015
      TEMPO 2812/2814 BKN008
     FM281400 09010KT P6SM SCT010 BKN020
     FM281700 09010KT P6SM SCT035
     FM282200 10008KT P6SM SCT040 BKN250
     FM290900 10006KT P6SM BKN010 BKN025
     FM291200 12008KT P6SM VCSH BKN010 OVC025 PROB30 2912/2918 6SM
      -SHRA SCT010 OVC025=



000
FTUS42 KFFC 281046 AAA
TAFPDK
TAF AMD
KPDK 281046Z 2811/2906 07005KT P6SM BKN009
      TEMPO 2811/2814 SCT009 BKN015
     FM281400 08006KT P6SM BKN020
     FM281700 10008KT P6SM SCT035
     FM290000 12003KT P6SM FEW040 BKN250=



000
FTUS42 KFFC 281046 AAA
TAFPDK
TAF AMD
KPDK 281046Z 2811/2906 07005KT P6SM BKN009
      TEMPO 2811/2814 SCT009 BKN015
     FM281400 08006KT P6SM BKN020
     FM281700 10008KT P6SM SCT035
     FM290000 12003KT P6SM FEW040 BKN250=



000
FTUS42 KFFC 280952 AAA
TAFCSG
TAF AMD
KCSG 280952Z 2810/2906 08007KT P6SM BKN008
      TEMPO 2810/2812 BKN010
     FM281200 08007KT P6SM BKN010
     FM281400 11008KT P6SM SCT020
     FM281700 12010KT P6SM BKN035
     FM282200 12008KT P6SM SCT045 SCT250
     FM290100 12005KT P6SM SCT045 SCT250=



000
FTUS42 KFFC 280942 AAC
TAFATL
TAF AMD
KATL 280942Z 2810/2912 08009KT P6SM BKN010
      TEMPO 2810/2814 BKN008
     FM281400 09010KT P6SM BKN020
     FM281700 09010KT P6SM SCT035
     FM282200 10008KT P6SM SCT045 SCT250
     FM290900 10006KT P6SM BKN010 BKN025=



000
FTUS42 KFFC 280858 AAA
TAFFTY
TAF AMD
KFTY 280858Z 2809/2906 05003KT P6SM SCT015
      TEMPO 2809/2812 BKN010
     FM281200 07003KT P6SM BKN015
     FM281400 08007KT P6SM BKN020
     FM281700 09008KT P6SM SCT035
     FM290000 10004KT P6SM FEW045 SCT250=



000
FTUS42 KFFC 280853 AAB
TAFATL
TAF AMD
KATL 280853Z 2809/2912 08008KT P6SM SCT010 BKN060
      TEMPO 2809/2811 BKN010
     FM281100 08008KT P6SM BKN008
     FM281400 09010KT P6SM BKN020
     FM281700 09010KT P6SM SCT035
     FM282200 10008KT P6SM SCT045 SCT250
     FM290800 10006KT P6SM SCT010 BKN025=



000
FTUS42 KFFC 280853 AAB
TAFATL
TAF AMD
KATL 280853Z 2809/2912 08008KT P6SM SCT010 BKN060
      TEMPO 2809/2811 BKN010
     FM281100 08008KT P6SM BKN008
     FM281400 09010KT P6SM BKN020
     FM281700 09010KT P6SM SCT035
     FM282200 10008KT P6SM SCT045 SCT250
     FM290800 10006KT P6SM SCT010 BKN025=



000
FTUS42 KFFC 280738 AAA
TAFATL
TAF AMD
KATL 280738Z 2808/2912 08007KT P6SM SCT025 SCT060
     FM281100 08008KT P6SM BKN010
     FM281400 09010KT P6SM BKN020
     FM281700 09010KT P6SM SCT035
     FM282200 10008KT P6SM SCT045 SCT250
     FM290800 10006KT P6SM SCT010 BKN025=



000
FTUS42 KFFC 280738 AAA
TAFATL
TAF AMD
KATL 280738Z 2808/2912 08007KT P6SM SCT025 SCT060
     FM281100 08008KT P6SM BKN010
     FM281400 09010KT P6SM BKN020
     FM281700 09010KT P6SM SCT035
     FM282200 10008KT P6SM SCT045 SCT250
     FM290800 10006KT P6SM SCT010 BKN025=



000
FTUS42 KFFC 280520
TAFFTY
TAF
KFTY 280520Z 2806/2906 00000KT P6SM SKC
     FM280900 00000KT P6SM SCT025
     FM281200 07003KT P6SM BKN015
     FM281400 08007KT P6SM BKN020
     FM281700 09008KT P6SM SCT035
     FM290000 10004KT P6SM FEW045 SCT250=



000
FTUS42 KFFC 280520
TAFCSG
TAF
KCSG 280520Z 2806/2906 07005KT P6SM SKC
     FM280900 07005KT P6SM SCT015
     FM281200 08006KT P6SM BKN010
     FM281400 11008KT P6SM SCT020
     FM281700 12010KT P6SM BKN035
     FM282200 12008KT P6SM SCT045 SCT250
     FM290100 12005KT P6SM SCT045 SCT250=



000
FTUS42 KFFC 280520
TAFAHN
TAF
KAHN 280520Z 2806/2906 07003KT P6SM SCT035
      TEMPO 2808/2810 SCT010 BKN030
     FM281000 06004KT P6SM BKN009
     FM281400 07006KT P6SM BKN020
     FM281700 09007KT P6SM SCT030
     FM290000 09004KT P6SM FEW035 SCT250=



000
FTUS42 KFFC 280520
TAFPDK
TAF
KPDK 280520Z 2806/2906 00000KT P6SM SKC
     FM280900 00000KT P6SM SCT025
     FM281200 07003KT P6SM BKN010
     FM281400 08006KT P6SM BKN020
     FM281700 10008KT P6SM SCT035
     FM290000 12003KT P6SM FEW045 SCT250=



000
FTUS42 KFFC 280520
TAFMCN
TAF
KMCN 280520Z 2806/2906 07004KT P6SM SCT030 SCT080
     FM280800 06004KT P6SM SCT010
     FM281000 06005KT P6SM BKN008
     FM281400 09007KT P6SM BKN015
     FM281700 09008KT P6SM BKN035
     FM282200 10006KT P6SM SCT045 SCT250
     FM290100 10004KT P6SM SCT050 SCT250=



000
FTUS42 KFFC 280520
TAFRYY
TAF
KRYY 280520Z 2806/2906 00000KT P6SM SKC
     FM280900 00000KT P6SM SCT025
     FM281200 09004KT P6SM BKN015
     FM281400 12006KT P6SM BKN020
     FM281700 12008KT P6SM SCT035
     FM290000 11004KT P6SM FEW045 SCT250
      AMD NOT SKED TIL 281200=



000
FTUS42 KFFC 280520
TAFATL
TAF
KATL 280520Z 2806/2912 08006KT P6SM SKC
     FM280900 08007KT P6SM SCT025
     FM281100 08008KT P6SM BKN010
     FM281400 09010KT P6SM BKN020
     FM281700 09010KT P6SM SCT035
     FM282200 10008KT P6SM SCT045 SCT250
     FM290800 10006KT P6SM SCT010 BKN025=



000
FTUS42 KFFC 280520
TAFATL
TAF
KATL 280520Z 2806/2912 08006KT P6SM SKC
     FM280900 08007KT P6SM SCT025
     FM281100 08008KT P6SM BKN010
     FM281400 09010KT P6SM BKN020
     FM281700 09010KT P6SM SCT035
     FM282200 10008KT P6SM SCT045 SCT250
     FM290800 10006KT P6SM SCT010 BKN025=



000
FTUS42 KFFC 280520
TAFRYY
TAF
KRYY 280520Z 2806/2906 00000KT P6SM SKC
     FM280900 00000KT P6SM SCT025
     FM281200 09004KT P6SM BKN015
     FM281400 12006KT P6SM BKN020
     FM281700 12008KT P6SM SCT035
     FM290000 11004KT P6SM FEW045 SCT250
      AMD NOT SKED TIL 281200=



000
FTUS42 KFFC 280520
TAFFTY
TAF
KFTY 280520Z 2806/2906 00000KT P6SM SKC
     FM280900 00000KT P6SM SCT025
     FM281200 07003KT P6SM BKN015
     FM281400 08007KT P6SM BKN020
     FM281700 09008KT P6SM SCT035
     FM290000 10004KT P6SM FEW045 SCT250=



000
FTUS42 KFFC 280520
TAFPDK
TAF
KPDK 280520Z 2806/2906 00000KT P6SM SKC
     FM280900 00000KT P6SM SCT025
     FM281200 07003KT P6SM BKN010
     FM281400 08006KT P6SM BKN020
     FM281700 10008KT P6SM SCT035
     FM290000 12003KT P6SM FEW045 SCT250=



000
FTUS42 KFFC 280520
TAFCSG
TAF
KCSG 280520Z 2806/2906 07005KT P6SM SKC
     FM280900 07005KT P6SM SCT015
     FM281200 08006KT P6SM BKN010
     FM281400 11008KT P6SM SCT020
     FM281700 12010KT P6SM BKN035
     FM282200 12008KT P6SM SCT045 SCT250
     FM290100 12005KT P6SM SCT045 SCT250=



000
FTUS42 KFFC 280520
TAFAHN
TAF
KAHN 280520Z 2806/2906 07003KT P6SM SCT035
      TEMPO 2808/2810 SCT010 BKN030
     FM281000 06004KT P6SM BKN009
     FM281400 07006KT P6SM BKN020
     FM281700 09007KT P6SM SCT030
     FM290000 09004KT P6SM FEW035 SCT250=



000
FTUS42 KFFC 280520
TAFMCN
TAF
KMCN 280520Z 2806/2906 07004KT P6SM SCT030 SCT080
     FM280800 06004KT P6SM SCT010
     FM281000 06005KT P6SM BKN008
     FM281400 09007KT P6SM BKN015
     FM281700 09008KT P6SM BKN035
     FM282200 10006KT P6SM SCT045 SCT250
     FM290100 10004KT P6SM SCT050 SCT250=



000
FTUS42 KFFC 280350 AAB
TAFATL
TAF AMD
KATL 280350Z 2804/2906 08008KT P6SM FEW080
     FM280600 08006KT P6SM SCT025
     FM280900 08006KT P6SM BKN012
     FM281400 08012KT P6SM BKN020
     FM281700 10012KT P6SM BKN035
     FM290000 09007KT P6SM SCT045=



000
FTUS42 KFFC 280304 AAA
TAFMCN
TAF AMD
KMCN 280304Z 2803/2824 06005KT P6SM VCSH SCT050
     FM280500 07004KT P6SM SCT025
     FM280700 06004KT P6SM BKN015
     FM280900 06005KT P6SM BKN009
     FM281400 08008KT P6SM BKN020
     FM281700 10010KT P6SM BKN035=



000
FTUS42 KFFC 280304 AAA
TAFMCN
TAF AMD
KMCN 280304Z 2803/2824 06005KT P6SM VCSH SCT050
     FM280500 07004KT P6SM SCT025
     FM280700 06004KT P6SM BKN015
     FM280900 06005KT P6SM BKN009
     FM281400 08008KT P6SM BKN020
     FM281700 10010KT P6SM BKN035=



000
FTUS42 KFFC 280140 AAA
TAFATL
TAF AMD
KATL 280140Z 2802/2906 06010KT P6SM FEW080
     FM280600 08006KT P6SM SCT025
     FM280900 08006KT P6SM BKN012
     FM281400 08012KT P6SM BKN020
     FM281700 10012KT P6SM BKN035
     FM290000 09007KT P6SM SCT045=



000
FTUS42 KFFC 280140 AAA
TAFATL
TAF AMD
KATL 280140Z 2802/2906 06010KT P6SM FEW080
     FM280600 08006KT P6SM SCT025
     FM280900 08006KT P6SM BKN012
     FM281400 08012KT P6SM BKN020
     FM281700 10012KT P6SM BKN035
     FM290000 09007KT P6SM SCT045=



000
FTUS42 KFFC 272343
TAFRYY
TAF
KRYY 272343Z 2800/2824 09007KT P6SM SKC
     FM280600 08004KT P6SM SCT025
     FM280900 08004KT P6SM BKN012
     FM281400 08008KT P6SM BKN020
     FM281700 10010KT P6SM BKN035
      AMD NOT SKED 2804/2812=



000
FTUS42 KFFC 272343
TAFFTY
TAF
KFTY 272343Z 2800/2824 07006KT P6SM SKC
     FM280600 08004KT P6SM SCT025
     FM280900 08004KT P6SM BKN012
     FM281400 08008KT P6SM BKN020
     FM281700 10010KT P6SM BKN035=



000
FTUS42 KFFC 272343
TAFATL
TAF
KATL 272343Z 2800/2906 06010KT P6SM SKC
     FM280600 08006KT P6SM SCT025
     FM280900 08006KT P6SM BKN012
     FM281400 08012KT P6SM BKN020
     FM281700 10012KT P6SM BKN035
     FM290000 09007KT P6SM SCT045=



000
FTUS42 KFFC 272343
TAFCSG
TAF
KCSG 272343Z 2800/2824 07006KT P6SM SKC
     FM280500 07005KT P6SM SCT025
     FM280700 08005KT P6SM BKN015
     FM280900 08005KT P6SM BKN012
     FM281400 08008KT P6SM BKN020
     FM281700 10010KT P6SM BKN035=



000
FTUS42 KFFC 272343
TAFMCN
TAF
KMCN 272343Z 2800/2824 06005KT P6SM FEW070
     FM280400 07004KT P6SM SCT025
     FM280600 06004KT P6SM BKN015
     FM280900 06005KT P6SM BKN009
     FM281400 08008KT P6SM BKN020
     FM281700 10010KT P6SM BKN035=



000
FTUS42 KFFC 272343
TAFAHN
TAF
KAHN 272343Z 2800/2824 06007KT P6SM SKC
     FM280400 08004KT P6SM SCT025
     FM280600 06004KT P6SM BKN015
     FM280900 06005KT P6SM BKN009
     FM281400 08008KT P6SM BKN020
     FM281700 10010KT P6SM BKN035=



000
FTUS42 KFFC 272343
TAFPDK
TAF
KPDK 272343Z 2800/2824 08005KT P6SM SKC
     FM280600 08004KT P6SM SCT025
     FM280900 08004KT P6SM BKN012
     FM281400 08008KT P6SM BKN020
     FM281700 10010KT P6SM BKN035=



000
FTUS42 KFFC 272343
TAFMCN
TAF
KMCN 272343Z 2800/2824 06005KT P6SM FEW070
     FM280400 07004KT P6SM SCT025
     FM280600 06004KT P6SM BKN015
     FM280900 06005KT P6SM BKN009
     FM281400 08008KT P6SM BKN020
     FM281700 10010KT P6SM BKN035=



000
FTUS42 KFFC 272343
TAFPDK
TAF
KPDK 272343Z 2800/2824 08005KT P6SM SKC
     FM280600 08004KT P6SM SCT025
     FM280900 08004KT P6SM BKN012
     FM281400 08008KT P6SM BKN020
     FM281700 10010KT P6SM BKN035=



000
FTUS42 KFFC 272343
TAFATL
TAF
KATL 272343Z 2800/2906 06010KT P6SM SKC
     FM280600 08006KT P6SM SCT025
     FM280900 08006KT P6SM BKN012
     FM281400 08012KT P6SM BKN020
     FM281700 10012KT P6SM BKN035
     FM290000 09007KT P6SM SCT045=



000
FTUS42 KFFC 272343
TAFRYY
TAF
KRYY 272343Z 2800/2824 09007KT P6SM SKC
     FM280600 08004KT P6SM SCT025
     FM280900 08004KT P6SM BKN012
     FM281400 08008KT P6SM BKN020
     FM281700 10010KT P6SM BKN035
      AMD NOT SKED 2804/2812=



000
FTUS42 KFFC 272343
TAFFTY
TAF
KFTY 272343Z 2800/2824 07006KT P6SM SKC
     FM280600 08004KT P6SM SCT025
     FM280900 08004KT P6SM BKN012
     FM281400 08008KT P6SM BKN020
     FM281700 10010KT P6SM BKN035=



000
FTUS42 KFFC 272343
TAFAHN
TAF
KAHN 272343Z 2800/2824 06007KT P6SM SKC
     FM280400 08004KT P6SM SCT025
     FM280600 06004KT P6SM BKN015
     FM280900 06005KT P6SM BKN009
     FM281400 08008KT P6SM BKN020
     FM281700 10010KT P6SM BKN035=



000
FTUS42 KFFC 272343
TAFCSG
TAF
KCSG 272343Z 2800/2824 07006KT P6SM SKC
     FM280500 07005KT P6SM SCT025
     FM280700 08005KT P6SM BKN015
     FM280900 08005KT P6SM BKN012
     FM281400 08008KT P6SM BKN020
     FM281700 10010KT P6SM BKN035=



000
FTUS42 KFFC 272220 AAA
TAFFTY
TAF AMD
KFTY 272220Z 2722/2818 07007KT P6SM SCT050
     FM280000 06005KT P6SM FEW050
     FM280900 08004KT P6SM BKN012
     FM281400 08008KT P6SM BKN020
     FM281700 10010KT P6SM BKN035=



000
FTUS42 KFFC 272218 AAA
TAFAHN
TAF AMD
KAHN 272218Z 2722/2818 06007KT P6SM FEW050
     FM280600 06005KT P6SM SCT015
     FM280900 06005KT P6SM BKN009
     FM281400 08008KT P6SM BKN020
     FM281700 10010KT P6SM BKN035=



000
FTUS42 KFFC 272218 AAA
TAFAHN
TAF AMD
KAHN 272218Z 2722/2818 06007KT P6SM FEW050
     FM280600 06005KT P6SM SCT015
     FM280900 06005KT P6SM BKN009
     FM281400 08008KT P6SM BKN020
     FM281700 10010KT P6SM BKN035=



000
FTUS42 KFFC 272159 AAB
TAFATL
TAF AMD
KATL 272159Z 2722/2824 08010G16KT P6SM SCT045
     FM280100 06010KT P6SM FEW050
     FM280900 08006KT P6SM BKN012
     FM281400 08012KT P6SM BKN020
     FM281700 10012KT P6SM BKN035=



000
FTUS42 KFFC 271954 AAA
TAFATL
TAF AMD
KATL 271954Z 2720/2824 08010G16KT P6SM SCT045
     FM280100 06010KT P6SM FEW050
     FM280900 08006KT P6SM BKN012
     FM281400 08012KT P6SM BKN020
     FM281700 10012KT P6SM BKN035=



000
FTUS42 KFFC 271731
TAFPDK
TAF
KPDK 271731Z 2718/2818 08010KT P6SM BKN040
     FM280100 06005KT P6SM FEW050
     FM280900 08004KT P6SM BKN012
     FM281400 08008KT P6SM BKN020
     FM281700 10010KT P6SM BKN035=



000
FTUS42 KFFC 271731
TAFRYY
TAF
KRYY 271731Z 2718/2818 08010KT P6SM BKN050
     FM280100 06005KT P6SM FEW050
     FM280900 08004KT P6SM BKN012
     FM281400 08008KT P6SM BKN020
     FM281700 10010KT P6SM BKN035=



000
FTUS42 KFFC 271731
TAFMCN
TAF
KMCN 271731Z 2718/2818 08010KT P6SM BKN030
     FM272000 09012KT P6SM BKN040
     FM280100 06005KT P6SM SCT050
     FM280900 06005KT P6SM BKN009
     FM281400 08008KT P6SM BKN020
     FM281700 10010KT P6SM BKN035=



000
FTUS42 KFFC 271731
TAFFTY
TAF
KFTY 271731Z 2718/2818 08010G16KT P6SM BKN040
     FM280100 06005KT P6SM FEW050
     FM280900 08004KT P6SM BKN012
     FM281400 08008KT P6SM BKN020
     FM281700 10010KT P6SM BKN035=



000
FTUS42 KFFC 271731
TAFAHN
TAF
KAHN 271731Z 2718/2818 08010G16KT P6SM BKN025
     FM272000 09012KT P6SM BKN040
     FM280100 06005KT P6SM SCT050
     FM280900 06005KT P6SM BKN009
     FM281400 08008KT P6SM BKN020
     FM281700 10010KT P6SM BKN035=



000
FTUS42 KFFC 271731
TAFCSG
TAF
KCSG 271731Z 2718/2818 08010KT P6SM BKN045
     FM280100 06005KT P6SM FEW050
     FM280900 08004KT P6SM BKN012
     FM281400 08008KT P6SM BKN020
     FM281700 10010KT P6SM BKN035=



000
FTUS42 KFFC 271731
TAFATL
TAF
KATL 271731Z 2718/2824 08012G18KT P6SM SCT030
     FM272000 08010G16KT P6SM BKN040
     FM280100 06010KT P6SM FEW050
     FM280900 08006KT P6SM BKN012
     FM281400 08012KT P6SM BKN020
     FM281700 10012KT P6SM BKN035=



000
FTUS42 KFFC 271603 AAB
TAFFTY
TAF AMD
KFTY 271603Z 2716/2812 06012G18KT P6SM BKN030
     FM271800 08012G18KT P6SM BKN040
     FM280300 06005KT P6SM FEW060
     FM280900 06002KT P6SM FEW150=



000
FTUS42 KFFC 271603 AAB
TAFFTY
TAF AMD
KFTY 271603Z 2716/2812 06012G18KT P6SM BKN030
     FM271800 08012G18KT P6SM BKN040
     FM280300 06005KT P6SM FEW060
     FM280900 06002KT P6SM FEW150=



000
FTUS42 KFFC 271602 AAB
TAFMCN
TAF AMD
KMCN 271602Z 2716/2812 05010KT P6SM BKN022
     FM271800 08010G16KT P6SM BKN040
     FM280300 06005KT P6SM FEW060
     FM280900 06003KT P6SM SCT150=



000
FTUS42 KFFC 271602 AAB
TAFMCN
TAF AMD
KMCN 271602Z 2716/2812 05010KT P6SM BKN022
     FM271800 08010G16KT P6SM BKN040
     FM280300 06005KT P6SM FEW060
     FM280900 06003KT P6SM SCT150=



000
FTUS42 KFFC 271559 AAB
TAFAHN
TAF AMD
KAHN 271559Z 2716/2812 06012G18KT P6SM BKN025
     FM271800 08012G18KT P6SM BKN040
     FM280300 06005KT P6SM FEW060
     FM280900 06003KT P6SM SKC=



000
FTUS42 KFFC 271556 AAB
TAFATL
TAF AMD
KATL 271556Z 2716/2818 07010G18KT P6SM BKN022
     FM271800 08012G18KT P6SM BKN040
     FM280300 06010KT P6SM FEW060
     FM280900 08006KT P6SM SCT150
     FM281400 08012KT P6SM SCT150=



000
FTUS42 KFFC 271556 AAB
TAFATL
TAF AMD
KATL 271556Z 2716/2818 07010G18KT P6SM BKN022
     FM271800 08012G18KT P6SM BKN040
     FM280300 06010KT P6SM FEW060
     FM280900 08006KT P6SM SCT150
     FM281400 08012KT P6SM SCT150=



000
FTUS42 KFFC 271359 AAA
TAFPDK
TAF AMD
KPDK 271359Z 2714/2812 05007KT P6SM BKN018
     FM271700 08010KT P6SM BKN040
     FM280300 06005KT P6SM FEW060
     FM280900 06002KT P6SM FEW150=



000
FTUS42 KFFC 271358 AAA
TAFFTY
TAF AMD
KFTY 271358Z 2714/2812 06012KT P6SM SCT020
      TEMPO 2714/2716 BKN020
     FM271600 08012KT P6SM BKN040
     FM280300 06005KT P6SM FEW060
     FM280900 06002KT P6SM FEW150=



000
FTUS42 KFFC 271356 AAA
TAFATL
TAF AMD
KATL 271356Z 2714/2818 07010G18KT P6SM BKN020
     FM271600 08012G18KT P6SM BKN040
     FM280300 06010KT P6SM FEW060
     FM280900 08006KT P6SM SCT150
     FM281400 08012KT P6SM SCT150=



000
FTUS42 KFFC 271317 AAA
TAFMCN
TAF AMD
KMCN 271317Z 2713/2812 05006KT P6SM SCT015
      TEMPO 2713/2715 BKN015
     FM271500 07008KT P6SM SCT035
     FM271800 08010KT P6SM BKN040
     FM280300 06005KT P6SM FEW060
     FM280900 06003KT P6SM SCT150=



000
FTUS42 KFFC 271316 AAA
TAFAHN
TAF AMD
KAHN 271316Z 2713/2812 06006KT P6SM BKN015
     FM271500 08008KT P6SM BKN035
     FM271700 08010KT P6SM BKN040
     FM280300 06005KT P6SM FEW060
     FM280900 06003KT P6SM SKC=



000
FTUS42 KFFC 271137
TAFAHN
TAF
KAHN 271137Z 2712/2812 06006KT P6SM FEW060
     FM271300 07008KT P6SM SCT035
     FM271700 08010KT P6SM BKN040
     FM280300 06005KT P6SM FEW060
     FM280900 06003KT P6SM SKC=



000
FTUS42 KFFC 271137
TAFRYY
TAF
KRYY 271137Z 2712/2812 02003KT P6SM SKC
     FM271400 07008KT P6SM SCT035
     FM271700 08010KT P6SM BKN040
     FM280300 06005KT P6SM FEW060=



000
FTUS42 KFFC 271137
TAFATL
TAF
KATL 271137Z 2712/2818 03006KT P6SM SCT015 SCT050
     FM271400 07010KT P6SM SCT035 SCT050
     FM271700 08014KT P6SM BKN040
     FM280300 06010KT P6SM FEW060
     FM280900 08006KT P6SM SCT150
     FM281400 08012KT P6SM SCT150=



000
FTUS42 KFFC 271137
TAFPDK
TAF
KPDK 271137Z 2712/2812 01003KT P6SM SKC
     FM271300 07008KT P6SM SCT035
     FM271700 08010KT P6SM BKN040
     FM280300 06005KT P6SM FEW060
     FM280900 06002KT P6SM FEW150=



000
FTUS42 KFFC 271137
TAFCSG
TAF
KCSG 271137Z 2712/2812 02005KT P6SM SKC
     FM271300 07008KT P6SM SCT035
     FM271700 08010KT P6SM BKN040
     FM280300 06005KT P6SM FEW060
     FM280900 06003KT P6SM SCT150=



000
FTUS42 KFFC 271137
TAFMCN
TAF
KMCN 271137Z 2712/2812 28003KT P6SM SKC
     FM271300 02006KT P6SM SKC
     FM271500 07008KT P6SM SCT035
     FM271800 08010KT P6SM BKN040
     FM280300 06005KT P6SM FEW060
     FM280900 06003KT P6SM SCT150=



000
FTUS42 KFFC 271137
TAFFTY
TAF
KFTY 271137Z 2712/2812 02003KT P6SM BKN020
     FM271400 07008KT P6SM SCT035
     FM271700 08010KT P6SM BKN040
     FM280300 06005KT P6SM FEW060
     FM280900 06002KT P6SM FEW150=



000
FTUS42 KFFC 271137
TAFPDK
TAF
KPDK 271137Z 2712/2812 01003KT P6SM SKC
     FM271300 07008KT P6SM SCT035
     FM271700 08010KT P6SM BKN040
     FM280300 06005KT P6SM FEW060
     FM280900 06002KT P6SM FEW150=



000
FTUS42 KFFC 271137
TAFATL
TAF
KATL 271137Z 2712/2818 03006KT P6SM SCT015 SCT050
     FM271400 07010KT P6SM SCT035 SCT050
     FM271700 08014KT P6SM BKN040
     FM280300 06010KT P6SM FEW060
     FM280900 08006KT P6SM SCT150
     FM281400 08012KT P6SM SCT150=



000
FTUS42 KFFC 271137
TAFCSG
TAF
KCSG 271137Z 2712/2812 02005KT P6SM SKC
     FM271300 07008KT P6SM SCT035
     FM271700 08010KT P6SM BKN040
     FM280300 06005KT P6SM FEW060
     FM280900 06003KT P6SM SCT150=



000
FTUS42 KFFC 271137
TAFFTY
TAF
KFTY 271137Z 2712/2812 02003KT P6SM BKN020
     FM271400 07008KT P6SM SCT035
     FM271700 08010KT P6SM BKN040
     FM280300 06005KT P6SM FEW060
     FM280900 06002KT P6SM FEW150=



000
FTUS42 KFFC 271137
TAFMCN
TAF
KMCN 271137Z 2712/2812 28003KT P6SM SKC
     FM271300 02006KT P6SM SKC
     FM271500 07008KT P6SM SCT035
     FM271800 08010KT P6SM BKN040
     FM280300 06005KT P6SM FEW060
     FM280900 06003KT P6SM SCT150=



000
FTUS42 KFFC 271137
TAFAHN
TAF
KAHN 271137Z 2712/2812 06006KT P6SM FEW060
     FM271300 07008KT P6SM SCT035
     FM271700 08010KT P6SM BKN040
     FM280300 06005KT P6SM FEW060
     FM280900 06003KT P6SM SKC=



000
FTUS42 KFFC 271137
TAFRYY
TAF
KRYY 271137Z 2712/2812 02003KT P6SM SKC
     FM271400 07008KT P6SM SCT035
     FM271700 08010KT P6SM BKN040
     FM280300 06005KT P6SM FEW060=



000
FTUS42 KFFC 270958 AAB
TAFATL
TAF AMD
KATL 270958Z 2710/2812 02006KT P6SM FEW045
     FM271300 07010KT P6SM SCT035
     FM271700 08014KT P6SM BKN040
     FM280300 06010KT P6SM FEW060
     FM280900 08006KT P6SM SCT150=



000
FTUS42 KFFC 270958 AAB
TAFATL
TAF AMD
KATL 270958Z 2710/2812 02006KT P6SM FEW045
     FM271300 07010KT P6SM SCT035
     FM271700 08014KT P6SM BKN040
     FM280300 06010KT P6SM FEW060
     FM280900 08006KT P6SM SCT150=



000
FTUS42 KFFC 270816 AAA
TAFATL
TAF AMD
KATL 270816Z 2708/2812 35005KT P6SM FEW050
     FM271000 02008KT P6SM SKC
     FM271300 07010KT P6SM SCT035
     FM271700 08014KT P6SM BKN040
     FM280300 06010KT P6SM FEW060
     FM280900 08006KT P6SM SCT150=



000
FTUS42 KFFC 270538
TAFAHN
TAF
KAHN 270538Z 2706/2806 00000KT P6SM SKC
     FM271000 02004KT P6SM SKC
     FM271300 07008KT P6SM SCT035
     FM271700 08010KT P6SM BKN040
     FM280300 06005KT P6SM FEW060=



000
FTUS42 KFFC 270538
TAFATL
TAF
KATL 270538Z 2706/2812 34006KT P6SM SKC
     FM271000 02008KT P6SM SKC
     FM271300 07010KT P6SM SCT035
     FM271700 08014KT P6SM BKN040
     FM280300 06010KT P6SM FEW060
     FM280900 08006KT P6SM SCT150=



000
FTUS42 KFFC 270538
TAFFTY
TAF
KFTY 270538Z 2706/2806 34003KT P6SM SKC
     FM271000 02006KT P6SM SKC
     FM271300 07008KT P6SM SCT035
     FM271700 08010KT P6SM BKN040
     FM280300 06005KT P6SM FEW060=



000
FTUS42 KFFC 270538
TAFMCN
TAF
KMCN 270538Z 2706/2806 27003KT P6SM SKC
     FM271000 02006KT P6SM SKC
     FM271300 07008KT P6SM SCT035
     FM271700 08010KT P6SM BKN040
     FM280300 06005KT P6SM FEW060=



000
FTUS42 KFFC 270538
TAFCSG
TAF
KCSG 270538Z 2706/2806 02007KT P6SM SKC
     FM271000 02005KT P6SM SKC
     FM271300 07008KT P6SM SCT035
     FM271700 08010KT P6SM BKN040
     FM280300 06005KT P6SM FEW060=



000
FTUS42 KFFC 270538
TAFRYY
TAF
KRYY 270538Z 2706/2806 34003KT P6SM SKC
     FM271000 02006KT P6SM SKC
     FM271300 07008KT P6SM SCT035
     FM271700 08010KT P6SM BKN040
     FM280300 06005KT P6SM FEW060
      AMD NOT SKED TIL 271200=



000
FTUS42 KFFC 270538
TAFPDK
TAF
KPDK 270538Z 2706/2806 34003KT P6SM SKC
     FM271000 02006KT P6SM SKC
     FM271300 07008KT P6SM SCT035
     FM271700 08010KT P6SM BKN040
     FM280300 06005KT P6SM FEW060=



000
FTUS42 KFFC 270352 AAC
TAFATL
TAF AMD
KATL 270352Z 2704/2806 02007KT P6SM SKC
     FM271300 07010KT P6SM SCT035
     FM271700 08014KT P6SM BKN040
     FM280100 06006KT P6SM FEW060=



000
FTUS42 KFFC 270157 AAB
TAFATL
TAF AMD
KATL 270157Z 2702/2806 35008KT P6SM SKC
     FM270400 02007KT P6SM SKC
     FM271300 07010KT P6SM SCT035
     FM271700 08014KT P6SM BKN040
     FM280100 06006KT P6SM FEW060=



000
FTUS42 KFFC 270102 AAA
TAFATL
TAF AMD
KATL 270102Z 2701/2806 35008KT P6SM SKC
     FM270400 02007KT P6SM SKC
     FM271300 07010KT P6SM SCT035
     FM271700 08014KT P6SM BKN040
     FM280100 06006KT P6SM FEW060=



000
FTUS42 KFFC 270102 AAA
TAFATL
TAF AMD
KATL 270102Z 2701/2806 35008KT P6SM SKC
     FM270400 02007KT P6SM SKC
     FM271300 07010KT P6SM SCT035
     FM271700 08014KT P6SM BKN040
     FM280100 06006KT P6SM FEW060=



000
FTUS42 KFFC 262336
TAFCSG
TAF
KCSG 262336Z 2700/2724 03004KT P6SM SKC
     FM271300 06007KT P6SM SCT035
     FM271700 07009KT P6SM BKN040=



000
FTUS42 KFFC 262336
TAFMCN
TAF
KMCN 262336Z 2700/2724 02003KT P6SM SKC
     FM271300 06007KT P6SM SCT035
     FM271700 07009KT P6SM BKN040=



000
FTUS42 KFFC 262336
TAFRYY
TAF
KRYY 262336Z 2700/2724 01004KT P6SM SKC
     FM271300 06007KT P6SM SCT035
     FM271700 08010KT P6SM BKN040
      AMD NOT SKED 2704/2712=



000
FTUS42 KFFC 262336
TAFATL
TAF
KATL 262336Z 2700/2806 04007KT P6SM SKC
     FM271300 07010KT P6SM SCT035
     FM271700 08014KT P6SM BKN040
     FM280100 06006KT P6SM FEW060=



000
FTUS42 KFFC 262336
TAFPDK
TAF
KPDK 262336Z 2700/2724 02004KT P6SM SKC
     FM271300 06008KT P6SM SCT035
     FM271700 08010KT P6SM BKN040=



000
FTUS42 KFFC 262336
TAFAHN
TAF
KAHN 262336Z 2700/2724 04004KT P6SM SKC
     FM270900 06004KT P6SM SCT025
     FM271300 08008KT P6SM SCT035
     FM271700 08012KT P6SM BKN040=



000
FTUS42 KFFC 262336
TAFFTY
TAF
KFTY 262336Z 2700/2724 02004KT P6SM SKC
     FM271300 06008KT P6SM SCT035
     FM271700 08010KT P6SM BKN040=



000
FTUS42 KFFC 262336
TAFATL
TAF
KATL 262336Z 2700/2806 04007KT P6SM SKC
     FM271300 07010KT P6SM SCT035
     FM271700 08014KT P6SM BKN040
     FM280100 06006KT P6SM FEW060=



000
FTUS42 KFFC 262336
TAFMCN
TAF
KMCN 262336Z 2700/2724 02003KT P6SM SKC
     FM271300 06007KT P6SM SCT035
     FM271700 07009KT P6SM BKN040=



000
FTUS42 KFFC 262336
TAFFTY
TAF
KFTY 262336Z 2700/2724 02004KT P6SM SKC
     FM271300 06008KT P6SM SCT035
     FM271700 08010KT P6SM BKN040=



000
FTUS42 KFFC 262336
TAFPDK
TAF
KPDK 262336Z 2700/2724 02004KT P6SM SKC
     FM271300 06008KT P6SM SCT035
     FM271700 08010KT P6SM BKN040=



000
FTUS42 KFFC 262336
TAFRYY
TAF
KRYY 262336Z 2700/2724 01004KT P6SM SKC
     FM271300 06007KT P6SM SCT035
     FM271700 08010KT P6SM BKN040
      AMD NOT SKED 2704/2712=



000
FTUS42 KFFC 262336
TAFAHN
TAF
KAHN 262336Z 2700/2724 04004KT P6SM SKC
     FM270900 06004KT P6SM SCT025
     FM271300 08008KT P6SM SCT035
     FM271700 08012KT P6SM BKN040=



000
FTUS42 KFFC 262336
TAFCSG
TAF
KCSG 262336Z 2700/2724 03004KT P6SM SKC
     FM271300 06007KT P6SM SCT035
     FM271700 07009KT P6SM BKN040=



000
FTUS42 KFFC 262146 AAB
TAFATL
TAF AMD
KATL 262146Z 2622/2724 05010KT P6SM FEW060
     FM270000 04007KT P6SM SKC
     FM271300 08010KT P6SM SCT035
     FM271700 08014KT P6SM BKN040=



000
FTUS42 KFFC 261952 AAA
TAFATL
TAF AMD
KATL 261952Z 2620/2724 07010KT P6SM SCT050 BKN250
     FM270000 04007KT P6SM SKC
     FM271300 08010KT P6SM SCT035
     FM271700 08014KT P6SM BKN040=



000
FTUS42 KFFC 261731
TAFATL
TAF
KATL 261731Z 2618/2724 07010KT P6SM SCT045
     FM270000 04007KT P6SM SKC
     FM271300 08010KT P6SM SCT035
     FM271700 08014KT P6SM BKN040=



000
FTUS42 KFFC 261731
TAFPDK
TAF
KPDK 261731Z 2618/2718 02007KT P6SM SCT045
     FM270000 04004KT P6SM SKC
     FM271300 08008KT P6SM SCT035
     FM271700 08010KT P6SM BKN040=



000
FTUS42 KFFC 261731
TAFFTY
TAF
KFTY 261731Z 2618/2718 02006KT P6SM SCT045
     FM270000 04004KT P6SM SKC
     FM271300 08008KT P6SM SCT035
     FM271700 08010KT P6SM BKN040=



000
FTUS42 KFFC 261731
TAFAHN
TAF
KAHN 261731Z 2618/2718 07008G16KT P6SM SCT040
     FM270000 04007KT P6SM FEW040
     FM271300 08008KT P6SM SCT035
     FM271700 08012KT P6SM BKN040=



000
FTUS42 KFFC 261731
TAFCSG
TAF
KCSG 261731Z 2618/2718 35006KT P6SM SCT040
     FM270000 VRB03KT P6SM SKC
     FM271300 08008KT P6SM SCT035
     FM271700 08012KT P6SM BKN040=



000
FTUS42 KFFC 261731
TAFMCN
TAF
KMCN 261731Z 2618/2718 34006KT P6SM SCT040
     FM270000 VRB03KT P6SM SKC
     FM271300 08008KT P6SM SCT035
     FM271700 08012KT P6SM BKN040=



000
FTUS42 KFFC 261731
TAFRYY
TAF
KRYY 261731Z 2618/2718 02010KT P6SM SCT045
     FM270000 04004KT P6SM SKC
     FM271300 08008KT P6SM SCT035
     FM271700 08010KT P6SM BKN040=



000
FTUS42 KFFC 261731
TAFAHN
TAF
KAHN 261731Z 2618/2718 07008G16KT P6SM SCT040
     FM270000 04007KT P6SM FEW040
     FM271300 08008KT P6SM SCT035
     FM271700 08012KT P6SM BKN040=



000
FTUS42 KFFC 261731
TAFRYY
TAF
KRYY 261731Z 2618/2718 02010KT P6SM SCT045
     FM270000 04004KT P6SM SKC
     FM271300 08008KT P6SM SCT035
     FM271700 08010KT P6SM BKN040=



000
FTUS42 KFFC 261731
TAFFTY
TAF
KFTY 261731Z 2618/2718 02006KT P6SM SCT045
     FM270000 04004KT P6SM SKC
     FM271300 08008KT P6SM SCT035
     FM271700 08010KT P6SM BKN040=



000
FTUS42 KFFC 261731
TAFMCN
TAF
KMCN 261731Z 2618/2718 34006KT P6SM SCT040
     FM270000 VRB03KT P6SM SKC
     FM271300 08008KT P6SM SCT035
     FM271700 08012KT P6SM BKN040=



000
FTUS42 KFFC 261731
TAFATL
TAF
KATL 261731Z 2618/2724 07010KT P6SM SCT045
     FM270000 04007KT P6SM SKC
     FM271300 08010KT P6SM SCT035
     FM271700 08014KT P6SM BKN040=



000
FTUS42 KFFC 261731
TAFPDK
TAF
KPDK 261731Z 2618/2718 02007KT P6SM SCT045
     FM270000 04004KT P6SM SKC
     FM271300 08008KT P6SM SCT035
     FM271700 08010KT P6SM BKN040=



000
FTUS42 KFFC 261731
TAFCSG
TAF
KCSG 261731Z 2618/2718 35006KT P6SM SCT040
     FM270000 VRB03KT P6SM SKC
     FM271300 08008KT P6SM SCT035
     FM271700 08012KT P6SM BKN040=



000
FTUS42 KFFC 261557 AAB
TAFATL
TAF AMD
KATL 261557Z 2616/2718 02008KT P6SM SCT250
     FM261800 02010KT P6SM SCT045
     FM262300 34010KT P6SM SCT060
     FM270300 35006KT P6SM SKC
     FM271200 04009KT P6SM SKC=



000
FTUS42 KFFC 261557 AAB
TAFATL
TAF AMD
KATL 261557Z 2616/2718 02008KT P6SM SCT250
     FM261800 02010KT P6SM SCT045
     FM262300 34010KT P6SM SCT060
     FM270300 35006KT P6SM SKC
     FM271200 04009KT P6SM SKC=



000
FTUS42 KFFC 261359 AAA
TAFATL
TAF AMD
KATL 261359Z 2614/2718 34007KT P6SM SKC
     FM261600 01008KT P6SM FEW040
     FM261800 02010KT P6SM SCT045
     FM262300 34010KT P6SM SCT060
     FM270300 35006KT P6SM SKC
     FM271200 04009KT P6SM SKC=



000
FTUS42 KFFC 261359 AAA
TAFATL
TAF AMD
KATL 261359Z 2614/2718 34007KT P6SM SKC
     FM261600 01008KT P6SM FEW040
     FM261800 02010KT P6SM SCT045
     FM262300 34010KT P6SM SCT060
     FM270300 35006KT P6SM SKC
     FM271200 04009KT P6SM SKC=



000
FTUS42 KFFC 261138
TAFMCN
TAF
KMCN 261138Z 2612/2712 28004KT P6SM SKC
     FM261700 34008KT P6SM SCT040
     FM262200 34005KT P6SM SCT060
     FM270300 35002KT P6SM SKC
     FM270900 04003KT P6SM SKC=



000
FTUS42 KFFC 261138
TAFCSG
TAF
KCSG 261138Z 2612/2712 34003KT P6SM SKC
     FM261700 35008KT P6SM SCT040
     FM262200 34006KT P6SM SCT060
     FM270300 35003KT P6SM SKC
     FM270900 04003KT P6SM SKC=



000
FTUS42 KFFC 261138
TAFPDK
TAF
KPDK 261138Z 2612/2712 32006KT P6SM SKC
     FM261600 02010KT P6SM SCT040
     FM262000 34006KT P6SM SCT060
     FM270300 35003KT P6SM SKC=



000
FTUS42 KFFC 261138
TAFATL
TAF
KATL 261138Z 2612/2718 31006KT P6SM SKC
     FM261500 02008KT P6SM SKC
     FM261800 02010KT P6SM SCT040
     FM262300 34010KT P6SM SCT060
     FM270300 35006KT P6SM SKC
     FM271200 04009KT P6SM SKC=



000
FTUS42 KFFC 261138
TAFRYY
TAF
KRYY 261138Z 2612/2712 34005KT P6SM SKC
     FM261600 02010KT P6SM SCT040
     FM262000 34006KT P6SM SCT060
     FM270300 35003KT P6SM SKC=



000
FTUS42 KFFC 261138
TAFAHN
TAF
KAHN 261138Z 2612/2712 32007KT P6SM SKC
     FM261500 02010KT P6SM SCT040
     FM262000 34006KT P6SM SCT060
     FM270300 35003KT P6SM SKC
     FM270600 06006KT P6SM SKC=



000
FTUS42 KFFC 261138
TAFMCN
TAF
KMCN 261138Z 2612/2712 28004KT P6SM SKC
     FM261700 34008KT P6SM SCT040
     FM262200 34005KT P6SM SCT060
     FM270300 35002KT P6SM SKC
     FM270900 04003KT P6SM SKC=



000
FTUS42 KFFC 261138
TAFFTY
TAF
KFTY 261138Z 2612/2712 32003KT P6SM SKC
     FM261500 02008KT P6SM SCT040
     FM262200 34006KT P6SM SCT060
     FM270300 35003KT P6SM SKC=



000
FTUS42 KFFC 261138
TAFCSG
TAF
KCSG 261138Z 2612/2712 34003KT P6SM SKC
     FM261700 35008KT P6SM SCT040
     FM262200 34006KT P6SM SCT060
     FM270300 35003KT P6SM SKC
     FM270900 04003KT P6SM SKC=



000
FTUS42 KFFC 261138
TAFRYY
TAF
KRYY 261138Z 2612/2712 34005KT P6SM SKC
     FM261600 02010KT P6SM SCT040
     FM262000 34006KT P6SM SCT060
     FM270300 35003KT P6SM SKC=



000
FTUS42 KFFC 261138
TAFATL
TAF
KATL 261138Z 2612/2718 31006KT P6SM SKC
     FM261500 02008KT P6SM SKC
     FM261800 02010KT P6SM SCT040
     FM262300 34010KT P6SM SCT060
     FM270300 35006KT P6SM SKC
     FM271200 04009KT P6SM SKC=



000
FTUS42 KFFC 261138
TAFPDK
TAF
KPDK 261138Z 2612/2712 32006KT P6SM SKC
     FM261600 02010KT P6SM SCT040
     FM262000 34006KT P6SM SCT060
     FM270300 35003KT P6SM SKC=



000
FTUS42 KFFC 261138
TAFFTY
TAF
KFTY 261138Z 2612/2712 32003KT P6SM SKC
     FM261500 02008KT P6SM SCT040
     FM262200 34006KT P6SM SCT060
     FM270300 35003KT P6SM SKC=



000
FTUS42 KFFC 261138
TAFAHN
TAF
KAHN 261138Z 2612/2712 32007KT P6SM SKC
     FM261500 02010KT P6SM SCT040
     FM262000 34006KT P6SM SCT060
     FM270300 35003KT P6SM SKC
     FM270600 06006KT P6SM SKC=



000
FTUS42 KFFC 260946 AAB
TAFATL
TAF AMD
KATL 260946Z 2610/2712 32007KT P6SM SKC
     FM261600 02010KT P6SM SCT040
     FM262000 34008KT P6SM SCT060
     FM270300 35006KT P6SM SKC=



000
FTUS42 KFFC 260759 AAA
TAFATL
TAF AMD
KATL 260759Z 2608/2712 32006KT P6SM SKC
     FM261600 02010KT P6SM SCT040
     FM262000 34008KT P6SM SCT060
     FM270300 35006KT P6SM SKC=



000
FTUS42 KFFC 260759 AAA
TAFATL
TAF AMD
KATL 260759Z 2608/2712 32006KT P6SM SKC
     FM261600 02010KT P6SM SCT040
     FM262000 34008KT P6SM SCT060
     FM270300 35006KT P6SM SKC=



000
FTUS42 KFFC 260541
TAFMCN
TAF
KMCN 260541Z 2606/2706 30005KT P6SM SKC
     FM261600 02008KT P6SM SCT040
     FM262000 34005KT P6SM SCT060
     FM270300 35002KT P6SM SKC=



000
FTUS42 KFFC 260541
TAFAHN
TAF
KAHN 260541Z 2606/2706 32007KT P6SM SKC
     FM261600 02010KT P6SM SCT040
     FM262000 34006KT P6SM SCT060
     FM270300 35003KT P6SM SKC=



000
FTUS42 KFFC 260541
TAFATL
TAF
KATL 260541Z 2606/2712 32010KT P6SM SKC
     FM261600 02010KT P6SM SCT040
     FM262000 34008KT P6SM SCT060
     FM270300 35006KT P6SM SKC=



000
FTUS42 KFFC 260541
TAFFTY
TAF
KFTY 260541Z 2606/2706 32008KT P6SM SKC
     FM261600 02010KT P6SM SCT040
     FM262000 34006KT P6SM SCT060
     FM270300 35003KT P6SM SKC=



000
FTUS42 KFFC 260541
TAFPDK
TAF
KPDK 260541Z 2606/2706 32006KT P6SM SKC
     FM261600 02010KT P6SM SCT040
     FM262000 34006KT P6SM SCT060
     FM270300 35003KT P6SM SKC=



000
FTUS42 KFFC 260541
TAFCSG
TAF
KCSG 260541Z 2606/2706 35005KT P6SM SKC
     FM261600 02008KT P6SM SCT040
     FM262000 34006KT P6SM SCT060
     FM270300 35003KT P6SM SKC=



000
FTUS42 KFFC 260541
TAFMCN
TAF
KMCN 260541Z 2606/2706 30005KT P6SM SKC
     FM261600 02008KT P6SM SCT040
     FM262000 34005KT P6SM SCT060
     FM270300 35002KT P6SM SKC=



000
FTUS42 KFFC 260541
TAFCSG
TAF
KCSG 260541Z 2606/2706 35005KT P6SM SKC
     FM261600 02008KT P6SM SCT040
     FM262000 34006KT P6SM SCT060
     FM270300 35003KT P6SM SKC=



000
FTUS42 KFFC 260541
TAFRYY
TAF
KRYY 260541Z 2606/2706 34005KT P6SM SKC
     FM261600 02010KT P6SM SCT040
     FM262000 34006KT P6SM SCT060
     FM270300 35003KT P6SM SKC
      AMD NOT SKED TIL 261200=



000
FTUS42 KFFC 260345 AAB
TAFATL
TAF AMD
KATL 260345Z 2604/2706 34007KT P6SM SKC
     FM261500 02008KT P6SM SCT040
     FM262000 34008KT P6SM SCT050
     FM270000 34006KT P6SM FEW060=



000
FTUS42 KFFC 260345 AAB
TAFATL
TAF AMD
KATL 260345Z 2604/2706 34007KT P6SM SKC
     FM261500 02008KT P6SM SCT040
     FM262000 34008KT P6SM SCT050
     FM270000 34006KT P6SM FEW060=



000
FTUS42 KFFC 260156 AAA
TAFATL
TAF AMD
KATL 260156Z 2602/2706 34007KT P6SM SKC
     FM261500 02008KT P6SM SCT040
     FM262000 34008KT P6SM SCT050
     FM270000 34006KT P6SM FEW060=



000
FTUS42 KFFC 260156 AAA
TAFATL
TAF AMD
KATL 260156Z 2602/2706 34007KT P6SM SKC
     FM261500 02008KT P6SM SCT040
     FM262000 34008KT P6SM SCT050
     FM270000 34006KT P6SM FEW060=



000
FTUS42 KFFC 252339
TAFCSG
TAF
KCSG 252339Z 2600/2624 34007KT P6SM SKC
     FM260200 34003KT P6SM SKC
     FM261500 34006KT P6SM SCT050=



000
FTUS42 KFFC 252339
TAFMCN
TAF
KMCN 252339Z 2600/2624 30006KT P6SM SKC
     FM260200 31003KT P6SM SKC
     FM261500 34006KT P6SM SCT050=



000
FTUS42 KFFC 252339
TAFRYY
TAF
KRYY 252339Z 2600/2624 32006KT P6SM SKC
     FM260200 34003KT P6SM SKC
     FM261500 02006KT P6SM SCT040
     FM262000 34007KT P6SM SCT050
      AMD NOT SKED 2604/2612=



000
FTUS42 KFFC 252339
TAFATL
TAF
KATL 252339Z 2600/2706 34007KT P6SM SKC
     FM261500 02008KT P6SM SCT040
     FM262000 34008KT P6SM SCT050
     FM270000 34006KT P6SM FEW060=



000
FTUS42 KFFC 252339
TAFFTY
TAF
KFTY 252339Z 2600/2624 32006KT P6SM SKC
     FM260300 34003KT P6SM SKC
     FM261500 02006KT P6SM SCT040
     FM262000 34007KT P6SM SCT050=



000
FTUS42 KFFC 252339
TAFPDK
TAF
KPDK 252339Z 2600/2624 32006KT P6SM SKC
     FM260300 34003KT P6SM SKC
     FM261500 02006KT P6SM SCT040
     FM262000 34007KT P6SM SCT050=



000
FTUS42 KFFC 252339
TAFAHN
TAF
KAHN 252339Z 2600/2624 34004KT P6SM SKC
     FM260600 02003KT P6SM SKC
     FM261500 04006KT P6SM FEW050=



    US Dept of Commerce
    National Oceanic and Atmospheric Administration
    National Weather Service
    1325 East West Highway
    Silver Spring, MD 20910
    Page Author: NWS Internet Services Team
Disclaimer
Information Quality
Credits
Glossary
Privacy Policy
Freedom of Information Act (FOIA)
About Us
Career Opportunities